Time;durP1;ratioP1;P1;durP2;ratioP2;P2;SDS_P1;SDS_P2;PMS_P1;PMS_P2;Temp;Humidity;BMP_temperature;BMP_pressure;BME280_temperature;BME280_humidity;BME280_pressure;Samples;Min_cycle;Max_cycle;Signal;HPM_P1;HPM_P2
2023/05/28 00:02:24;;;;;;;20.77;11.10;;;24.40;42.60;;;;;;5066020;28;45526;-74
2023/05/28 00:04:51;;;;;;;17.70;10.30;;;24.40;42.70;;;;;;5068830;28;45379;-74
2023/05/28 00:07:21;;;;;;;19.15;10.68;;;24.40;42.70;;;;;;5068717;28;45419;-74
2023/05/28 00:09:48;;;;;;;16.67;10.77;;;24.40;42.70;;;;;;5068634;28;45418;-74
2023/05/28 00:12:17;;;;;;;17.40;10.52;;;24.30;42.80;;;;;;5064167;28;46010;-73
2023/05/28 00:14:43;;;;;;;17.00;10.68;;;24.30;42.90;;;;;;5068438;28;45754;-73
2023/05/28 00:17:10;;;;;;;13.95;8.82;;;24.30;43.10;;;;;;5068007;28;45457;-73
2023/05/28 00:19:37;;;;;;;15.75;9.82;;;24.20;43.20;;;;;;5068360;28;47326;-74
2023/05/28 00:22:04;;;;;;;13.55;9.13;;;24.20;43.20;;;;;;5067936;28;45315;-73
2023/05/28 00:24:31;;;;;;;15.02;9.35;;;24.20;43.20;;;;;;5067775;28;45288;-73
2023/05/28 00:26:58;;;;;;;14.77;8.95;;;24.20;43.30;;;;;;5068573;28;45355;-73
2023/05/28 00:29:27;;;;;;;18.30;10.13;;;24.10;43.30;;;;;;5068054;28;45314;-73
2023/05/28 00:31:55;;;;;;;15.55;8.95;;;24.10;43.30;;;;;;5068003;28;45327;-73
2023/05/28 00:34:22;;;;;;;14.18;8.68;;;24.00;43.40;;;;;;5068163;28;45337;-73
2023/05/28 00:36:48;;;;;;;15.13;9.13;;;24.00;43.40;;;;;;5068363;28;45491;-73
2023/05/28 00:39:15;;;;;;;12.15;8.35;;;24.00;43.50;;;;;;5067916;28;45410;-73
2023/05/28 00:41:42;;;;;;;12.93;8.50;;;24.00;43.50;;;;;;5068072;28;45094;-73
2023/05/28 00:44:09;;;;;;;15.40;8.25;;;24.00;43.60;;;;;;5068256;28;45189;-73
2023/05/28 00:46:38;;;;;;;15.43;9.07;;;24.00;44.10;;;;;;5068328;28;45347;-73
2023/05/28 00:49:05;;;;;;;12.60;8.20;;;23.90;43.60;;;;;;5067764;28;46419;-73
2023/05/28 00:51:32;;;;;;;15.57;9.48;;;23.90;43.50;;;;;;5067966;28;45314;-73
2023/05/28 00:53:59;;;;;;;13.15;7.70;;;23.90;43.60;;;;;;5067998;28;45339;-73
2023/05/28 00:56:26;;;;;;;14.50;9.02;;;23.90;43.60;;;;;;5068357;28;45517;-73
2023/05/28 00:58:55;;;;;;;14.43;9.02;;;23.80;43.60;;;;;;5067531;28;46383;-73
2023/05/28 01:01:22;;;;;;;14.55;8.43;;;23.80;43.80;;;;;;5066929;28;45335;-73
2023/05/28 01:03:51;;;;;;;14.20;8.38;;;23.80;43.70;;;;;;5067645;28;45302;-73
2023/05/28 01:06:20;;;;;;;14.32;8.43;;;23.80;43.70;;;;;;5067914;28;45407;-73
2023/05/28 01:08:47;;;;;;;14.63;8.80;;;23.80;44.40;;;;;;5067377;28;46674;-73
2023/05/28 01:11:16;;;;;;;14.63;8.40;;;23.70;43.80;;;;;;5067606;28;45275;-73
2023/05/28 01:13:43;;;;;;;13.82;7.70;;;23.70;43.80;;;;;;5067639;28;45325;-73
2023/05/28 01:16:10;;;;;;;12.27;7.68;;;23.70;43.90;;;;;;5067756;28;45504;-73
2023/05/28 01:18:39;;;;;;;13.95;8.25;;;23.70;44.00;;;;;;5067349;28;45467;-73
2023/05/28 01:21:07;;;;;;;13.55;8.18;;;23.60;44.00;;;;;;5067469;28;45261;-73
2023/05/28 01:23:38;;;;;;;14.40;8.40;;;23.60;43.90;;;;;;5067545;28;45423;-73
2023/05/28 01:26:05;;;;;;;13.20;8.25;;;23.60;44.10;;;;;;5067552;28;45107;-73
2023/05/28 01:28:32;;;;;;;17.30;8.15;;;23.60;44.00;;;;;;5067067;28;45356;-73
2023/05/28 01:30:59;;;;;;;12.50;8.27;;;23.50;44.00;;;;;;5067265;28;45492;-73
2023/05/28 01:33:27;;;;;;;12.68;7.57;;;23.50;44.10;;;;;;5064699;28;45352;-73
2023/05/28 01:35:54;;;;;;;13.57;7.82;;;23.50;44.00;;;;;;5067527;28;45438;-73
2023/05/28 01:38:21;;;;;;;13.15;7.75;;;23.50;44.20;;;;;;5066894;28;45394;-73
2023/05/28 01:40:50;;;;;;;12.35;7.65;;;23.50;44.10;;;;;;5067192;28;45404;-73
2023/05/28 01:43:16;;;;;;;12.70;7.43;;;23.40;44.30;;;;;;5067139;28;45360;-74
2023/05/28 01:45:43;;;;;;;11.80;7.45;;;23.40;44.20;;;;;;5067491;28;45304;-73
2023/05/28 01:48:10;;;;;;;13.60;6.97;;;23.40;44.30;;;;;;5066902;28;46390;-73
2023/05/28 01:50:37;;;;;;;13.13;7.05;;;23.40;44.30;;;;;;5066425;28;45290;-73
2023/05/28 01:53:04;;;;;;;11.27;6.82;;;23.30;44.80;;;;;;5064429;28;45280;-73
2023/05/28 01:55:30;;;;;;;12.15;6.97;;;23.30;44.40;;;;;;5067118;28;45356;-73
2023/05/28 01:57:59;;;;;;;13.25;7.35;;;23.30;44.40;;;;;;5067015;28;47401;-73
2023/05/28 02:00:26;;;;;;;12.10;6.95;;;23.30;44.40;;;;;;5066646;28;45367;-73
2023/05/28 02:02:53;;;;;;;11.57;7.15;;;23.30;44.50;;;;;;5066580;28;45281;-73
2023/05/28 02:05:20;;;;;;;13.15;7.07;;;23.20;44.40;;;;;;5066935;28;45372;-73
2023/05/28 02:07:47;;;;;;;11.23;6.53;;;23.20;44.40;;;;;;5066551;28;45312;-73
2023/05/28 02:10:13;;;;;;;10.68;6.43;;;23.20;44.50;;;;;;5066715;28;45330;-73
2023/05/28 02:12:40;;;;;;;11.52;6.80;;;23.20;44.50;;;;;;5066802;28;45249;-73
2023/05/28 02:15:11;;;;;;;11.02;6.78;;;23.20;44.60;;;;;;5066884;28;45427;-73
2023/05/28 02:17:37;;;;;;;8.35;6.38;;;23.10;44.60;;;;;;5066602;28;45374;-73
2023/05/28 02:20:06;;;;;;;12.25;6.50;;;23.10;44.60;;;;;;5066693;28;45276;-73
2023/05/28 02:22:32;;;;;;;9.75;6.03;;;23.10;44.70;;;;;;5066844;28;45308;-73
2023/05/28 02:24:59;;;;;;;10.50;6.65;;;23.10;44.70;;;;;;5066824;28;45372;-74
2023/05/28 02:27:26;;;;;;;9.85;6.03;;;23.00;44.80;;;;;;5066352;28;45324;-73
2023/05/28 02:29:53;;;;;;;10.68;6.18;;;23.00;44.80;;;;;;5066446;28;45532;-73
2023/05/28 02:32:21;;;;;;;10.07;6.25;;;23.00;44.90;;;;;;5066566;28;45264;-73
2023/05/28 02:34:48;;;;;;;8.65;6.43;;;23.00;44.80;;;;;;5066733;28;45394;-73
2023/05/28 02:37:15;;;;;;;9.98;6.40;;;22.90;44.80;;;;;;5065628;28;45734;-73
2023/05/28 02:39:41;;;;;;;7.57;5.47;;;22.90;44.90;;;;;;5066160;28;45358;-74
2023/05/28 02:42:08;;;;;;;10.15;6.15;;;22.90;44.90;;;;;;5066558;28;45292;-73
2023/05/28 02:44:35;;;;;;;9.35;5.95;;;22.80;44.90;;;;;;5066496;28;45403;-73
2023/05/28 02:47:02;;;;;;;9.73;6.38;;;22.90;44.90;;;;;;5068084;28;45380;-74
2023/05/28 02:49:30;;;;;;;8.75;5.70;;;22.80;44.90;;;;;;5070154;28;45309;-73
2023/05/28 02:51:57;;;;;;;8.85;6.00;;;22.80;44.90;;;;;;5069368;28;45258;-73
2023/05/28 02:54:24;;;;;;;9.65;5.60;;;22.80;44.90;;;;;;5069812;28;45315;-73
2023/05/28 02:56:52;;;;;;;7.25;5.22;;;22.80;44.90;;;;;;5068957;28;46711;-73
2023/05/28 02:59:19;;;;;;;11.07;5.63;;;22.70;45.00;;;;;;5069164;28;45316;-72
2023/05/28 03:01:45;;;;;;;10.82;5.65;;;22.70;45.00;;;;;;5069418;28;45323;-74
2023/05/28 03:04:12;;;;;;;9.63;5.25;;;22.70;45.00;;;;;;5069692;28;45327;-74
2023/05/28 03:06:41;;;;;;;9.75;5.15;;;22.70;45.10;;;;;;5069450;28;47013;-74
2023/05/28 03:09:08;;;;;;;9.52;5.45;;;22.70;45.60;;;;;;5069315;28;45415;-73
2023/05/28 03:11:35;;;;;;;7.45;5.35;;;22.60;44.90;;;;;;5069744;28;45471;-73
2023/05/28 03:14:02;;;;;;;8.38;5.38;;;22.60;45.00;;;;;;5069686;28;45447;-73
2023/05/28 03:16:28;;;;;;;8.57;5.00;;;22.60;45.10;;;;;;5069560;28;45269;-74
2023/05/28 03:18:55;;;;;;;8.18;5.30;;;22.60;45.00;;;;;;5068627;28;45312;-73
2023/05/28 03:21:22;;;;;;;8.80;5.50;;;22.60;45.00;;;;;;5069624;28;45402;-73
2023/05/28 03:23:50;;;;;;;9.13;5.22;;;22.60;45.10;;;;;;5069553;28;45327;-73
2023/05/28 03:26:17;;;;;;;7.10;5.03;;;22.50;45.00;;;;;;5069269;28;46390;-73
2023/05/28 03:28:44;;;;;;;7.28;5.40;;;22.50;45.10;;;;;;5069151;28;45308;-73
2023/05/28 03:31:12;;;;;;;8.43;5.22;;;22.50;45.10;;;;;;5069194;28;45364;-72
2023/05/28 03:33:39;;;;;;;7.85;5.18;;;22.50;45.10;;;;;;5069399;28;45284;-74
2023/05/28 03:36:06;;;;;;;8.57;5.20;;;22.40;45.00;;;;;;5068770;28;45322;-73
2023/05/28 03:38:33;;;;;;;10.70;5.38;;;22.40;45.10;;;;;;5069084;28;45328;-73
2023/05/28 03:41:01;;;;;;;8.90;5.38;;;22.40;45.10;;;;;;5069144;28;45297;-73
2023/05/28 03:43:28;;;;;;;7.80;4.85;;;22.30;45.20;;;;;;5069407;28;45367;-73
2023/05/28 03:45:55;;;;;;;7.38;4.50;;;22.30;45.10;;;;;;5068816;28;45371;-73
2023/05/28 03:48:22;;;;;;;7.88;4.63;;;22.30;45.20;;;;;;5068825;28;45391;-72
2023/05/28 03:50:49;;;;;;;6.18;4.35;;;22.30;45.10;;;;;;5068904;28;45426;-72
2023/05/28 03:53:15;;;;;;;5.70;4.28;;;22.30;45.20;;;;;;5069147;28;45365;-73
2023/05/28 03:55:43;;;;;;;7.07;4.30;;;22.30;45.30;;;;;;5068620;28;46674;-72
2023/05/28 03:58:14;;;;;;;7.35;4.50;;;22.30;45.30;;;;;;5068693;28;45660;-72
2023/05/28 04:00:41;;;;;;;6.82;4.68;;;22.20;45.30;;;;;;5068632;28;45389;-72
2023/05/28 04:03:08;;;;;;;6.63;4.60;;;22.20;45.20;;;;;;5068398;28;45299;-74
2023/05/28 04:05:34;;;;;;;6.78;4.30;;;22.20;45.30;;;;;;5067885;28;45434;-74
2023/05/28 04:08:02;;;;;;;6.13;4.20;;;22.20;45.30;;;;;;5068486;28;45339;-74
2023/05/28 04:10:29;;;;;;;7.53;4.53;;;22.20;45.40;;;;;;5068808;28;45330;-74
2023/05/28 04:12:56;;;;;;;6.13;4.45;;;22.10;45.40;;;;;;5068740;28;45373;-75
2023/05/28 04:15:24;;;;;;;6.50;4.22;;;22.10;45.30;;;;;;5068478;28;46789;-74
2023/05/28 04:17:51;;;;;;;6.85;4.35;;;22.10;45.40;;;;;;5068380;28;45363;-74
2023/05/28 04:20:18;;;;;;;9.20;4.07;;;22.10;45.40;;;;;;5068440;28;45299;-74
2023/05/28 04:22:46;;;;;;;6.50;4.47;;;22.10;45.50;;;;;;5068684;28;45503;-73
2023/05/28 04:25:13;;;;;;;4.95;3.72;;;22.10;45.50;;;;;;5068117;28;46406;-75
2023/05/28 04:27:41;;;;;;;8.60;4.28;;;22.00;45.50;;;;;;5068314;28;45376;-74
2023/05/28 04:30:09;;;;;;;6.28;4.05;;;22.00;45.50;;;;;;5068531;28;45386;-75
2023/05/28 04:32:39;;;;;;;6.50;3.97;;;22.00;46.10;;;;;;5068676;28;45267;-74
2023/05/28 04:35:06;;;;;;;5.75;4.43;;;22.00;45.50;;;;;;5068113;28;46473;-74
2023/05/28 04:37:36;;;;;;;5.78;4.00;;;22.00;45.60;;;;;;5067942;28;45296;-74
2023/05/28 04:40:03;;;;;;;5.30;3.90;;;22.00;45.50;;;;;;5068319;28;45378;-74
2023/05/28 04:42:30;;;;;;;6.80;3.78;;;22.00;45.60;;;;;;5068529;28;45486;-72
2023/05/28 04:44:58;;;;;;;7.75;3.85;;;22.00;45.50;;;;;;5067802;28;46597;-71
2023/05/28 04:47:24;;;;;;;5.55;4.03;;;22.00;45.50;;;;;;5067992;28;45423;-74
2023/05/28 04:49:53;;;;;;;7.22;3.97;;;22.00;45.60;;;;;;5067462;28;45328;-74
2023/05/28 04:52:19;;;;;;;5.18;3.83;;;21.90;45.60;;;;;;5067486;28;45299;-74
2023/05/28 04:54:46;;;;;;;4.53;3.72;;;21.90;45.60;;;;;;5067626;28;46662;-74
2023/05/28 04:57:13;;;;;;;5.03;3.42;;;21.90;45.50;;;;;;5067642;28;45285;-74
2023/05/28 04:59:41;;;;;;;6.35;4.00;;;21.90;45.50;;;;;;5067800;28;45353;-74
2023/05/28 05:02:08;;;;;;;4.88;3.80;;;21.90;45.50;;;;;;5067680;28;45549;-74
2023/05/28 05:04:35;;;;;;;5.60;4.03;;;21.90;45.50;;;;;;5067532;28;46385;-74
2023/05/28 05:07:03;;;;;;;4.45;3.65;;;21.90;45.50;;;;;;5067425;28;45418;-74
2023/05/28 05:09:30;;;;;;;5.38;3.80;;;21.90;45.50;;;;;;5067043;28;45318;-74
2023/05/28 05:11:57;;;;;;;4.38;3.42;;;21.90;45.50;;;;;;5067900;28;45431;-74
2023/05/28 05:14:24;;;;;;;5.43;3.97;;;21.90;45.40;;;;;;5067436;28;45565;-74
2023/05/28 05:16:51;;;;;;;6.07;3.78;;;21.90;45.50;;;;;;5067276;28;45312;-74
2023/05/28 05:19:17;;;;;;;5.03;3.42;;;21.90;45.50;;;;;;5067744;28;45277;-74
2023/05/28 05:21:44;;;;;;;6.88;3.88;;;21.80;45.50;;;;;;5067664;28;45610;-74
2023/05/28 05:24:13;;;;;;;6.10;4.30;;;21.90;45.50;;;;;;5067186;28;47345;-74
2023/05/28 05:26:39;;;;;;;4.25;3.40;;;21.80;45.40;;;;;;5067077;28;45285;-73
2023/05/28 05:29:06;;;;;;;4.72;3.60;;;21.80;45.40;;;;;;5067341;28;45337;-73
2023/05/28 05:31:33;;;;;;;4.63;3.60;;;21.80;45.50;;;;;;5067408;28;45416;-72
2023/05/28 05:34:00;;;;;;;4.20;3.33;;;21.80;45.60;;;;;;5066689;28;46379;-74
2023/05/28 05:36:27;;;;;;;4.15;3.45;;;21.80;45.50;;;;;;5066380;28;45316;-74
2023/05/28 05:38:53;;;;;;;3.70;3.08;;;21.80;45.50;;;;;;5064594;28;45292;-73
2023/05/28 05:41:22;;;;;;;6.90;3.60;;;21.80;45.50;;;;;;5067469;28;45382;-74
2023/05/28 05:43:49;;;;;;;4.90;3.45;;;21.80;45.60;;;;;;5066953;28;46659;-74
2023/05/28 05:46:15;;;;;;;4.70;3.35;;;21.80;45.60;;;;;;5066945;28;45423;-74
2023/05/28 05:48:42;;;;;;;4.10;2.90;;;21.80;45.60;;;;;;5067132;28;45280;-74
2023/05/28 05:51:09;;;;;;;4.18;3.28;;;21.80;45.60;;;;;;5067265;28;45242;-74
2023/05/28 05:53:41;;;;;;;5.78;3.70;;;21.80;45.60;;;;;;5066806;28;46765;-74
2023/05/28 05:56:07;;;;;;;6.00;3.63;;;21.80;45.60;;;;;;5066939;28;45328;-74
2023/05/28 05:58:36;;;;;;;4.65;3.42;;;21.80;45.60;;;;;;5067281;28;45331;-74
2023/05/28 06:01:03;;;;;;;4.22;3.20;;;21.80;45.60;;;;;;5066984;28;45404;-74
2023/05/28 06:03:30;;;;;;;4.32;3.30;;;21.80;45.60;;;;;;5066379;28;45455;-74
2023/05/28 06:05:57;;;;;;;4.13;3.45;;;21.80;45.70;;;;;;5064036;28;45264;-75
2023/05/28 06:08:24;;;;;;;4.65;3.40;;;21.80;45.70;;;;;;5066823;28;45348;-73
2023/05/28 06:10:51;;;;;;;5.50;3.38;;;21.80;45.70;;;;;;5067012;28;45587;-74
2023/05/28 06:13:18;;;;;;;4.55;3.03;;;21.80;45.70;;;;;;5066545;28;46422;-73
2023/05/28 06:15:46;;;;;;;6.05;3.70;;;21.80;45.80;;;;;;5066572;28;45307;-74
2023/05/28 06:18:13;;;;;;;4.57;3.17;;;21.80;45.70;;;;;;5066548;28;45324;-74
2023/05/28 06:20:40;;;;;;;3.20;2.80;;;21.80;45.70;;;;;;5065016;28;45490;-73
2023/05/28 06:23:07;;;;;;;3.55;3.13;;;21.80;45.80;;;;;;5066132;28;45276;-73
2023/05/28 06:25:35;;;;;;;4.18;3.40;;;21.80;46.30;;;;;;5066341;28;45254;-73
2023/05/28 06:28:01;;;;;;;4.20;3.10;;;21.80;45.70;;;;;;5066531;28;45314;-74
2023/05/28 06:30:29;;;;;;;4.25;3.20;;;21.80;45.70;;;;;;5066570;28;45277;-73
2023/05/28 06:32:57;;;;;;;4.05;2.97;;;21.80;45.70;;;;;;5066315;28;45460;-73
2023/05/28 06:35:24;;;;;;;5.15;3.17;;;21.80;45.80;;;;;;5066170;28;45498;-73
2023/05/28 06:37:51;;;;;;;4.72;2.97;;;21.80;45.70;;;;;;5066394;28;45258;-73
2023/05/28 06:40:18;;;;;;;4.32;3.20;;;21.90;45.80;;;;;;5066806;28;45319;-73
2023/05/28 06:42:45;;;;;;;4.70;3.45;;;21.90;45.80;;;;;;5066275;28;46509;-73
2023/05/28 06:45:12;;;;;;;3.97;3.10;;;21.90;45.80;;;;;;5066369;28;45287;-73
2023/05/28 06:47:39;;;;;;;5.28;3.28;;;21.90;45.80;;;;;;5066524;28;45370;-73
2023/05/28 06:50:08;;;;;;;2.67;2.42;;;21.90;46.40;;;;;;5066492;28;45291;-73
2023/05/28 06:52:34;;;;;;;3.47;2.67;;;21.90;45.90;;;;;;5065944;28;46402;-73
2023/05/28 06:55:01;;;;;;;3.88;2.88;;;21.90;45.90;;;;;;5065694;28;45304;-73
2023/05/28 06:57:28;;;;;;;3.65;3.00;;;21.90;45.90;;;;;;5065821;28;45379;-73
2023/05/28 06:59:55;;;;;;;4.43;2.80;;;21.90;45.90;;;;;;5066063;28;45574;-73
2023/05/28 07:02:22;;;;;;;2.95;2.65;;;21.90;45.80;;;;;;5065488;28;46334;-73
2023/05/28 07:04:48;;;;;;;3.85;3.05;;;22.00;45.90;;;;;;5065214;28;45323;-73
2023/05/28 07:07:17;;;;;;;4.38;2.92;;;22.00;45.90;;;;;;5065678;28;45398;-73
2023/05/28 07:09:44;;;;;;;4.15;2.95;;;22.00;46.00;;;;;;5065948;28;45412;-73
2023/05/28 07:12:10;;;;;;;4.22;2.92;;;22.00;46.00;;;;;;5065724;28;48545;-73
2023/05/28 07:14:37;;;;;;;4.10;2.83;;;22.00;46.00;;;;;;5065884;28;45334;-73
2023/05/28 07:17:04;;;;;;;4.80;2.65;;;22.00;46.00;;;;;;5065870;28;45312;-73
2023/05/28 07:19:32;;;;;;;4.32;3.08;;;22.10;46.00;;;;;;5066172;28;45309;-73
2023/05/28 07:21:58;;;;;;;2.97;2.67;;;22.10;46.00;;;;;;5065690;28;45464;-73
2023/05/28 07:24:26;;;;;;;4.28;3.15;;;22.10;46.00;;;;;;5065731;28;45302;-73
2023/05/28 07:26:53;;;;;;;3.58;2.80;;;22.10;45.90;;;;;;5065657;28;45415;-73
2023/05/28 07:29:20;;;;;;;4.05;3.15;;;22.10;46.00;;;;;;5065937;28;45431;-72
2023/05/28 07:31:47;;;;;;;3.58;3.20;;;22.10;46.00;;;;;;5065853;28;45377;-73
2023/05/28 07:34:14;;;;;;;4.45;2.63;;;22.10;46.00;;;;;;5069091;28;45259;-73
2023/05/28 07:36:41;;;;;;;3.50;2.85;;;22.20;46.10;;;;;;5069171;28;45296;-73
2023/05/28 07:39:08;;;;;;;3.22;2.90;;;22.20;46.00;;;;;;5069327;28;45424;-74
2023/05/28 07:41:36;;;;;;;5.28;2.72;;;22.20;46.00;;;;;;5068897;28;45478;-73
2023/05/28 07:44:03;;;;;;;2.90;2.63;;;22.30;46.00;;;;;;5068897;28;45348;-73
2023/05/28 07:46:30;;;;;;;3.22;2.90;;;22.20;46.00;;;;;;5068954;28;45304;-73
2023/05/28 07:48:57;;;;;;;4.95;2.60;;;22.30;46.00;;;;;;5065968;28;45202;-73
2023/05/28 07:51:23;;;;;;;3.22;2.60;;;22.30;45.90;;;;;;5068787;28;47702;-74
2023/05/28 07:53:50;;;;;;;3.28;2.60;;;22.30;46.00;;;;;;5068750;28;45268;-73
2023/05/28 07:56:17;;;;;;;4.03;3.08;;;22.30;45.80;;;;;;5068750;28;45413;-73
2023/05/28 07:58:45;;;;;;;4.68;2.63;;;22.30;45.80;;;;;;5069020;28;45276;-73
2023/05/28 08:01:12;;;;;;;3.03;2.70;;;22.40;45.80;;;;;;5068467;28;45457;-73
2023/05/28 08:03:39;;;;;;;4.32;2.65;;;22.40;45.70;;;;;;5068261;28;45323;-73
2023/05/28 08:06:08;;;;;;;3.78;2.67;;;22.40;45.60;;;;;;5068755;28;45379;-73
2023/05/28 08:08:35;;;;;;;2.72;2.53;;;22.40;46.10;;;;;;5068824;28;45268;-72
2023/05/28 08:11:02;;;;;;;4.38;2.97;;;22.40;45.50;;;;;;5068461;28;45486;-73
2023/05/28 08:13:28;;;;;;;3.90;2.75;;;22.50;45.50;;;;;;5068556;28;45355;-73
2023/05/28 08:15:59;;;;;;;3.33;2.70;;;22.50;45.50;;;;;;5068547;28;45269;-73
2023/05/28 08:18:26;;;;;;;3.25;2.90;;;22.50;45.40;;;;;;5068892;28;45529;-73
2023/05/28 08:20:53;;;;;;;4.00;2.88;;;22.60;45.50;;;;;;5068210;28;46388;-72
2023/05/28 08:23:19;;;;;;;3.88;2.92;;;22.60;45.40;;;;;;5068350;28;45293;-72
2023/05/28 08:25:46;;;;;;;3.72;2.65;;;22.60;45.40;;;;;;5068427;28;45378;-73
2023/05/28 08:28:13;;;;;;;3.20;2.78;;;22.60;45.40;;;;;;5068547;28;45507;-72
2023/05/28 08:30:40;;;;;;;3.67;2.80;;;22.60;45.30;;;;;;5068158;28;45595;-72
2023/05/28 08:33:08;;;;;;;3.78;2.58;;;22.70;45.30;;;;;;5067548;28;45151;-73
2023/05/28 08:35:35;;;;;;;3.90;2.88;;;22.70;45.30;;;;;;5068021;28;45359;-73
2023/05/28 08:38:02;;;;;;;3.60;2.70;;;22.70;45.30;;;;;;5068601;28;45398;-73
2023/05/28 08:40:29;;;;;;;3.33;2.70;;;22.70;45.30;;;;;;5067788;28;45459;-73
2023/05/28 08:42:56;;;;;;;3.28;2.97;;;22.80;45.30;;;;;;5068051;28;45225;-73
2023/05/28 08:45:23;;;;;;;3.33;2.80;;;22.80;45.30;;;;;;5067143;28;45361;-73
2023/05/28 08:47:51;;;;;;;3.60;2.72;;;22.80;45.30;;;;;;5068203;28;45419;-73
2023/05/28 08:50:19;;;;;;;3.28;2.97;;;22.90;45.30;;;;;;5067730;28;45296;-73
2023/05/28 08:52:46;;;;;;;3.15;2.83;;;22.90;45.30;;;;;;5067752;28;45350;-73
2023/05/28 08:55:13;;;;;;;3.45;2.58;;;22.90;45.30;;;;;;5067864;28;45192;-73
2023/05/28 08:57:39;;;;;;;4.45;2.70;;;22.90;45.30;;;;;;5068046;28;45315;-73
2023/05/28 09:00:08;;;;;;;2.97;2.67;;;22.90;45.30;;;;;;5067717;28;46358;-72
2023/05/28 09:02:35;;;;;;;2.65;2.45;;;23.00;45.30;;;;;;5067428;28;45385;-73
2023/05/28 09:05:03;;;;;;;3.22;2.47;;;23.00;45.30;;;;;;5067816;28;45315;-72
2023/05/28 09:07:32;;;;;;;3.13;2.70;;;23.00;45.30;;;;;;5067981;28;45325;-72
2023/05/28 09:09:59;;;;;;;2.95;2.38;;;23.00;45.30;;;;;;5067505;28;45550;-72
2023/05/28 09:12:26;;;;;;;2.80;2.50;;;23.10;45.30;;;;;;5067447;28;45367;-72
2023/05/28 09:14:53;;;;;;;3.88;2.80;;;23.10;45.30;;;;;;5067628;28;45304;-72
2023/05/28 09:17:33;;;;;;;3.22;2.65;;;23.10;45.30;;;;;;5067234;28;45436;-72
2023/05/28 09:20:00;;;;;;;3.05;2.45;;;23.20;45.30;;;;;;5067385;28;45667;-72
2023/05/28 09:22:27;;;;;;;3.58;2.67;;;23.20;45.30;;;;;;5066686;28;45382;-73
2023/05/28 09:24:56;;;;;;;3.17;2.70;;;23.20;45.30;;;;;;5067433;28;45274;-73
2023/05/28 09:27:23;;;;;;;2.92;2.50;;;23.20;45.30;;;;;;5067585;28;45377;-72
2023/05/28 09:29:50;;;;;;;3.50;2.83;;;23.30;45.30;;;;;;5067057;28;46625;-72
2023/05/28 09:32:18;;;;;;;3.55;2.45;;;23.30;45.30;;;;;;5067239;28;45281;-73
2023/05/28 09:34:45;;;;;;;2.75;2.55;;;23.30;45.30;;;;;;5067288;28;45336;-73
2023/05/28 09:37:12;;;;;;;3.22;2.60;;;23.30;45.30;;;;;;5067448;28;45439;-72
2023/05/28 09:39:39;;;;;;;3.95;2.95;;;23.40;45.30;;;;;;5067042;28;45551;-72
2023/05/28 09:42:09;;;;;;;3.83;2.65;;;23.40;45.30;;;;;;5066986;28;45376;-72
2023/05/28 09:44:36;;;;;;;4.13;2.70;;;23.40;45.30;;;;;;5067167;28;45335;-73
2023/05/28 09:47:03;;;;;;;3.08;2.60;;;23.40;45.20;;;;;;5067079;28;45410;-73
2023/05/28 09:49:30;;;;;;;4.50;2.90;;;23.50;45.90;;;;;;5066665;28;45315;-73
2023/05/28 09:51:58;;;;;;;2.78;2.53;;;23.50;45.80;;;;;;5066940;28;45362;-72
2023/05/28 09:54:26;;;;;;;3.63;2.78;;;23.50;45.20;;;;;;5066918;28;45315;-72
2023/05/28 09:56:53;;;;;;;5.30;3.10;;;23.60;45.30;;;;;;5066969;28;45440;-73
2023/05/28 09:59:21;;;;;;;3.45;2.47;;;23.60;45.20;;;;;;5066776;28;45518;-72
2023/05/28 10:01:51;;;;;;;3.72;2.60;;;23.60;45.20;;;;;;5066404;28;45284;-72
2023/05/28 10:04:19;;;;;;;4.00;2.45;;;23.60;45.20;;;;;;5066967;28;45418;-72
2023/05/28 10:06:45;;;;;;;4.05;2.50;;;23.70;45.30;;;;;;5066974;28;45395;-73
2023/05/28 10:09:13;;;;;;;2.95;2.45;;;23.70;45.90;;;;;;5065934;28;46403;-73
2023/05/28 10:11:43;;;;;;;3.20;2.65;;;23.80;45.30;;;;;;5066720;28;45322;-72
2023/05/28 10:14:10;;;;;;;2.53;2.28;;;23.80;45.30;;;;;;5066784;28;45321;-72
2023/05/28 10:16:38;;;;;;;3.05;2.63;;;23.80;45.30;;;;;;5066834;28;45402;-72
2023/05/28 10:19:05;;;;;;;5.03;2.55;;;23.90;45.20;;;;;;5066418;28;45543;-72
2023/05/28 10:21:32;;;;;;;2.72;2.50;;;23.90;45.10;;;;;;5066315;28;45253;-72
2023/05/28 10:23:59;;;;;;;3.20;2.47;;;24.00;45.20;;;;;;5066592;28;45443;-73
2023/05/28 10:26:26;;;;;;;2.72;2.20;;;24.00;45.20;;;;;;5066894;28;45303;-72
2023/05/28 10:28:55;;;;;;;3.13;2.67;;;24.00;45.00;;;;;;5066412;28;46492;-72
2023/05/28 10:31:22;;;;;;;4.63;2.85;;;24.00;45.20;;;;;;5066328;28;45403;-72
2023/05/28 10:33:50;;;;;;;3.70;2.47;;;24.10;45.10;;;;;;5066599;28;45324;-73
2023/05/28 10:36:18;;;;;;;3.40;2.65;;;24.10;45.10;;;;;;5066393;28;45415;-72
2023/05/28 10:38:45;;;;;;;2.90;2.50;;;24.10;45.10;;;;;;5066073;28;45257;-72
2023/05/28 10:41:12;;;;;;;2.53;2.33;;;24.20;45.10;;;;;;5066190;28;45303;-72
2023/05/28 10:43:44;;;;;;;2.97;2.53;;;24.20;45.10;;;;;;5066364;28;45402;-72
2023/05/28 10:46:11;;;;;;;3.95;2.65;;;24.20;45.20;;;;;;5066205;28;45567;-72
2023/05/28 10:48:39;;;;;;;2.50;2.30;;;24.30;45.10;;;;;;5066085;28;45363;-72
2023/05/28 10:51:07;;;;;;;2.85;2.35;;;24.30;45.10;;;;;;5066140;28;45346;-72
2023/05/28 10:53:34;;;;;;;3.40;2.40;;;24.40;45.10;;;;;;5066120;28;45278;-71
2023/05/28 10:56:02;;;;;;;3.10;2.40;;;24.40;45.10;;;;;;5065523;28;45758;-72
2023/05/28 10:58:33;;;;;;;3.50;2.45;;;24.50;45.10;;;;;;5065320;28;45518;-72
2023/05/28 11:01:06;;;;;;;2.88;2.20;;;24.50;45.70;;;;;;5066008;28;45238;-72
2023/05/28 11:03:46;;;;;;;3.38;2.65;;;24.50;45.00;;;;;;5065683;28;45305;-72
2023/05/28 11:06:14;;;;;;;3.53;2.38;;;24.60;45.00;;;;;;5066135;28;45339;-72
2023/05/28 11:08:45;;;;;;;3.35;2.30;;;24.70;44.90;;;;;;5068957;28;45320;-72
2023/05/28 11:11:12;;;;;;;3.85;2.35;;;24.70;44.90;;;;;;5069407;28;45251;-72
2023/05/28 11:13:39;;;;;;;2.85;2.55;;;24.70;44.70;;;;;;5069677;28;45300;-72
2023/05/28 11:16:07;;;;;;;5.55;2.75;;;24.80;44.70;;;;;;5069343;28;45416;-72
2023/05/28 11:18:34;;;;;;;3.47;2.88;;;24.80;44.60;;;;;;5069193;28;46415;-72
2023/05/28 11:21:04;;;;;;;3.63;2.25;;;24.90;44.60;;;;;;5069460;28;45355;-72
2023/05/28 11:23:32;;;;;;;3.17;2.55;;;25.00;44.50;;;;;;5069171;28;45341;-72
2023/05/28 11:25:59;;;;;;;2.78;2.47;;;25.00;44.60;;;;;;5069404;28;45122;-72
2023/05/28 11:28:26;;;;;;;3.88;2.42;;;25.00;44.40;;;;;;5069130;28;45474;-72
2023/05/28 11:30:53;;;;;;;5.20;2.75;;;25.10;44.30;;;;;;5069113;28;45420;-72
2023/05/28 11:33:20;;;;;;;3.83;2.60;;;25.10;44.20;;;;;;5069022;28;45347;-72
2023/05/28 11:35:56;;;;;;;3.13;2.83;;;25.20;44.20;;;;;;5069401;28;45390;-72
2023/05/28 11:38:23;;;;;;;3.40;2.35;;;25.30;44.90;;;;;;5069009;28;45189;-72
2023/05/28 11:40:51;;;;;;;3.38;2.25;;;25.30;44.20;;;;;;5069019;28;45277;-72
2023/05/28 11:43:18;;;;;;;4.00;2.63;;;25.30;44.10;;;;;;5069061;28;45394;-73
2023/05/28 11:45:44;;;;;;;3.15;2.40;;;25.40;44.00;;;;;;5069028;28;45502;-72
2023/05/28 11:48:12;;;;;;;3.08;2.40;;;25.40;43.90;;;;;;5066562;28;46398;-72
2023/05/28 11:50:39;;;;;;;3.95;2.35;;;25.50;44.00;;;;;;5068149;28;45540;-71
2023/05/28 11:53:06;;;;;;;3.67;2.63;;;25.50;43.60;;;;;;5068209;28;45344;-72
2023/05/28 11:55:33;;;;;;;3.55;2.60;;;25.60;43.90;;;;;;5067193;28;45504;-72
2023/05/28 11:58:01;;;;;;;5.38;2.53;;;25.60;43.80;;;;;;5067379;28;46411;-72
2023/05/28 12:00:32;;;;;;;6.32;2.78;;;25.70;43.80;;;;;;5066103;28;45138;-72
2023/05/28 12:03:00;;;;;;;3.70;2.47;;;25.70;43.70;;;;;;5066668;28;45378;-72
2023/05/28 12:05:26;;;;;;;5.03;2.75;;;25.80;43.60;;;;;;5068904;28;45387;-73
2023/05/28 12:07:54;;;;;;;5.25;2.45;;;25.80;43.40;;;;;;5068388;28;46483;-73
2023/05/28 12:10:21;;;;;;;5.60;2.55;;;25.90;43.60;;;;;;5068663;28;45266;-74
2023/05/28 12:12:49;;;;;;;4.07;2.60;;;25.90;43.60;;;;;;5068688;28;45479;-73
2023/05/28 12:15:18;;;;;;;4.10;2.70;;;26.00;43.90;;;;;;5068681;28;45510;-73
2023/05/28 12:17:46;;;;;;;4.00;2.40;;;26.10;44.60;;;;;;5066239;28;45384;-72
2023/05/28 12:20:30;;;;;;;3.40;2.65;;;26.20;44.70;;;;;;5067311;28;45353;-72
2023/05/28 12:23:04;;;;;;;5.72;2.75;;;26.30;45.10;;;;;;5068504;28;45277;-72
2023/05/28 12:25:48;;;;;;;3.08;2.42;;;26.40;45.20;;;;;;5067185;28;45561;-72
2023/05/28 12:28:16;;;;;;;6.10;2.60;;;26.50;45.30;;;;;;5068242;28;47109;-72
2023/05/28 12:30:45;;;;;;;8.55;2.95;;;26.60;45.30;;;;;;5068255;28;45463;-72
2023/05/28 12:33:12;;;;;;;3.53;2.53;;;26.70;45.40;;;;;;5067085;28;45445;-72
2023/05/28 12:35:39;;;;;;;3.05;2.75;;;26.80;45.40;;;;;;5068773;28;45257;-72
2023/05/28 12:38:05;;;;;;;4.22;2.92;;;26.80;45.40;;;;;;5068156;28;46716;-72
2023/05/28 12:40:32;;;;;;;5.28;2.40;;;26.90;45.30;;;;;;5052074;28;45327;-71
2023/05/28 12:42:59;;;;;;;5.78;2.50;;;27.00;44.60;;;;;;5047909;28;45419;-71
2023/05/28 12:45:26;;;;;;;4.53;2.95;;;27.10;44.40;;;;;;5053920;28;45439;-71
2023/05/28 12:47:54;;;;;;;4.75;2.50;;;27.10;44.30;;;;;;5067814;28;45418;-72